sensor_id;sensor_type;location;lat;lon;timestamp;P1;durP1;ratioP1;P2;durP2;ratioP2
16326;SDS011;34812;49.846;9.610;2023-06-22T00:00:58;6.30;;;3.75;;
16326;SDS011;34812;49.846;9.610;2023-06-22T00:06:01;4.30;;;3.90;;
16326;SDS011;34812;49.846;9.610;2023-06-22T00:11:03;6.18;;;3.90;;
16326;SDS011;34812;49.846;9.610;2023-06-22T00:16:06;5.30;;;4.03;;
16326;SDS011;34812;49.846;9.610;2023-06-22T00:21:09;7.25;;;4.03;;
16326;SDS011;34812;49.846;9.610;2023-06-22T00:26:12;12.15;;;4.72;;
16326;SDS011;34812;49.846;9.610;2023-06-22T00:31:16;8.13;;;4.68;;
16326;SDS011;34812;49.846;9.610;2023-06-22T00:36:18;4.63;;;4.15;;
16326;SDS011;34812;49.846;9.610;2023-06-22T00:41:20;6.53;;;4.18;;
16326;SDS011;34812;49.846;9.610;2023-06-22T00:46:23;6.72;;;4.97;;
16326;SDS011;34812;49.846;9.610;2023-06-22T00:51:26;6.07;;;4.45;;
16326;SDS011;34812;49.846;9.610;2023-06-22T00:56:28;7.80;;;4.28;;
16326;SDS011;34812;49.846;9.610;2023-06-22T01:01:32;7.07;;;4.82;;
16326;SDS011;34812;49.846;9.610;2023-06-22T01:06:35;4.85;;;4.15;;
16326;SDS011;34812;49.846;9.610;2023-06-22T01:11:41;9.35;;;5.03;;
16326;SDS011;34812;49.846;9.610;2023-06-22T01:16:46;6.70;;;4.78;;
16326;SDS011;34812;49.846;9.610;2023-06-22T01:21:49;5.18;;;4.53;;
16326;SDS011;34812;49.846;9.610;2023-06-22T01:26:54;10.52;;;5.45;;
16326;SDS011;34812;49.846;9.610;2023-06-22T01:32:00;8.85;;;4.18;;
16326;SDS011;34812;49.846;9.610;2023-06-22T01:37:04;8.25;;;4.40;;
16326;SDS011;34812;49.846;9.610;2023-06-22T01:42:06;7.28;;;4.60;;
16326;SDS011;34812;49.846;9.610;2023-06-22T01:47:10;5.93;;;4.18;;
16326;SDS011;34812;49.846;9.610;2023-06-22T01:52:14;5.93;;;4.55;;
16326;SDS011;34812;49.846;9.610;2023-06-22T01:57:16;8.52;;;4.43;;
16326;SDS011;34812;49.846;9.610;2023-06-22T02:02:19;8.73;;;4.45;;
16326;SDS011;34812;49.846;9.610;2023-06-22T02:07:28;6.30;;;4.65;;
16326;SDS011;34812;49.846;9.610;2023-06-22T02:12:35;7.40;;;5.00;;
16326;SDS011;34812;49.846;9.610;2023-06-22T02:17:39;7.43;;;4.57;;
16326;SDS011;34812;49.846;9.610;2023-06-22T02:22:45;7.25;;;4.60;;
16326;SDS011;34812;49.846;9.610;2023-06-22T02:27:47;6.57;;;5.28;;
16326;SDS011;34812;49.846;9.610;2023-06-22T02:32:52;7.00;;;5.28;;
16326;SDS011;34812;49.846;9.610;2023-06-22T02:37:58;9.52;;;5.85;;
16326;SDS011;34812;49.846;9.610;2023-06-22T02:43:01;8.38;;;5.43;;
16326;SDS011;34812;49.846;9.610;2023-06-22T02:48:05;9.30;;;5.18;;
16326;SDS011;34812;49.846;9.610;2023-06-22T02:53:07;7.85;;;5.95;;
16326;SDS011;34812;49.846;9.610;2023-06-22T02:58:13;6.25;;;5.40;;
16326;SDS011;34812;49.846;9.610;2023-06-22T03:03:18;7.15;;;4.80;;
16326;SDS011;34812;49.846;9.610;2023-06-22T03:08:20;9.93;;;5.65;;
16326;SDS011;34812;49.846;9.610;2023-06-22T03:13:22;7.85;;;5.60;;
16326;SDS011;34812;49.846;9.610;2023-06-22T03:18:26;7.22;;;5.00;;
16326;SDS011;34812;49.846;9.610;2023-06-22T03:23:28;6.50;;;5.13;;
16326;SDS011;34812;49.846;9.610;2023-06-22T03:28:30;7.78;;;5.13;;
16326;SDS011;34812;49.846;9.610;2023-06-22T03:33:34;9.32;;;5.60;;
16326;SDS011;34812;49.846;9.610;2023-06-22T03:38:36;6.53;;;5.57;;
16326;SDS011;34812;49.846;9.610;2023-06-22T03:43:38;7.30;;;5.20;;
16326;SDS011;34812;49.846;9.610;2023-06-22T03:48:42;6.30;;;5.40;;
16326;SDS011;34812;49.846;9.610;2023-06-22T03:53:44;9.80;;;6.00;;
16326;SDS011;34812;49.846;9.610;2023-06-22T03:58:46;8.48;;;5.45;;
16326;SDS011;34812;49.846;9.610;2023-06-22T04:03:49;9.13;;;6.00;;
16326;SDS011;34812;49.846;9.610;2023-06-22T04:08:52;10.30;;;5.55;;
16326;SDS011;34812;49.846;9.610;2023-06-22T04:13:54;15.32;;;6.60;;
16326;SDS011;34812;49.846;9.610;2023-06-22T04:18:57;7.45;;;5.15;;
16326;SDS011;34812;49.846;9.610;2023-06-22T04:24:00;7.15;;;5.78;;
16326;SDS011;34812;49.846;9.610;2023-06-22T04:29:02;7.43;;;6.65;;
16326;SDS011;34812;49.846;9.610;2023-06-22T04:34:07;8.57;;;6.35;;
16326;SDS011;34812;49.846;9.610;2023-06-22T04:39:10;11.07;;;6.20;;
16326;SDS011;34812;49.846;9.610;2023-06-22T04:44:12;7.10;;;5.40;;
16326;SDS011;34812;49.846;9.610;2023-06-22T04:49:25;8.80;;;7.10;;
16326;SDS011;34812;49.846;9.610;2023-06-22T04:54:32;8.57;;;6.53;;
16326;SDS011;34812;49.846;9.610;2023-06-22T04:59:35;9.15;;;6.13;;
16326;SDS011;34812;49.846;9.610;2023-06-22T05:04:40;10.50;;;6.35;;
16326;SDS011;34812;49.846;9.610;2023-06-22T05:09:42;13.48;;;6.28;;
16326;SDS011;34812;49.846;9.610;2023-06-22T05:14:44;6.28;;;5.68;;
16326;SDS011;34812;49.846;9.610;2023-06-22T05:19:48;9.02;;;5.15;;
16326;SDS011;34812;49.846;9.610;2023-06-22T05:24:50;9.35;;;5.00;;
16326;SDS011;34812;49.846;9.610;2023-06-22T05:29:52;8.73;;;5.57;;
16326;SDS011;34812;49.846;9.610;2023-06-22T05:34:55;6.65;;;4.97;;
16326;SDS011;34812;49.846;9.610;2023-06-22T05:39:57;7.22;;;5.35;;
16326;SDS011;34812;49.846;9.610;2023-06-22T05:44:59;9.93;;;5.90;;
16326;SDS011;34812;49.846;9.610;2023-06-22T05:50:03;9.00;;;5.85;;
16326;SDS011;34812;49.846;9.610;2023-06-22T05:55:08;8.35;;;5.30;;
16326;SDS011;34812;49.846;9.610;2023-06-22T06:00:11;7.40;;;5.00;;
16326;SDS011;34812;49.846;9.610;2023-06-22T06:05:16;6.78;;;5.20;;
16326;SDS011;34812;49.846;9.610;2023-06-22T06:10:18;8.43;;;5.57;;
16326;SDS011;34812;49.846;9.610;2023-06-22T06:15:20;9.32;;;5.95;;
16326;SDS011;34812;49.846;9.610;2023-06-22T06:20:24;5.85;;;4.85;;
16326;SDS011;34812;49.846;9.610;2023-06-22T06:25:27;6.35;;;5.47;;
16326;SDS011;34812;49.846;9.610;2023-06-22T06:30:30;8.85;;;6.32;;
16326;SDS011;34812;49.846;9.610;2023-06-22T06:35:33;6.45;;;5.05;;
16326;SDS011;34812;49.846;9.610;2023-06-22T06:40:36;8.93;;;4.53;;
16326;SDS011;34812;49.846;9.610;2023-06-22T06:45:38;6.25;;;4.90;;
16326;SDS011;34812;49.846;9.610;2023-06-22T06:50:41;7.68;;;5.72;;
16326;SDS011;34812;49.846;9.610;2023-06-22T06:55:44;8.68;;;4.70;;
16326;SDS011;34812;49.846;9.610;2023-06-22T07:00:46;9.68;;;4.57;;
16326;SDS011;34812;49.846;9.610;2023-06-22T07:05:50;6.47;;;4.97;;
16326;SDS011;34812;49.846;9.610;2023-06-22T07:10:52;6.30;;;4.88;;
16326;SDS011;34812;49.846;9.610;2023-06-22T07:15:54;5.90;;;4.80;;
16326;SDS011;34812;49.846;9.610;2023-06-22T07:20:58;6.15;;;5.20;;
16326;SDS011;34812;49.846;9.610;2023-06-22T07:26:00;7.93;;;5.20;;
16326;SDS011;34812;49.846;9.610;2023-06-22T07:31:02;6.63;;;5.30;;
16326;SDS011;34812;49.846;9.610;2023-06-22T07:36:05;6.05;;;4.85;;
16326;SDS011;34812;49.846;9.610;2023-06-22T07:41:08;5.53;;;4.72;;
16326;SDS011;34812;49.846;9.610;2023-06-22T07:46:10;4.85;;;4.30;;
16326;SDS011;34812;49.846;9.610;2023-06-22T07:51:14;4.63;;;4.22;;
16326;SDS011;34812;49.846;9.610;2023-06-22T07:56:16;5.53;;;5.03;;
16326;SDS011;34812;49.846;9.610;2023-06-22T08:01:19;4.60;;;4.20;;
16326;SDS011;34812;49.846;9.610;2023-06-22T08:06:23;6.10;;;5.05;;
16326;SDS011;34812;49.846;9.610;2023-06-22T08:11:25;6.97;;;4.85;;
16326;SDS011;34812;49.846;9.610;2023-06-22T08:16:27;9.73;;;5.18;;
16326;SDS011;34812;49.846;9.610;2023-06-22T08:21:30;6.53;;;5.35;;
16326;SDS011;34812;49.846;9.610;2023-06-22T08:26:32;5.90;;;4.82;;
16326;SDS011;34812;49.846;9.610;2023-06-22T08:31:36;5.55;;;4.93;;
16326;SDS011;34812;49.846;9.610;2023-06-22T08:36:40;9.23;;;5.35;;
16326;SDS011;34812;49.846;9.610;2023-06-22T08:41:45;10.45;;;5.32;;
16326;SDS011;34812;49.846;9.610;2023-06-22T08:46:47;5.55;;;4.72;;
16326;SDS011;34812;49.846;9.610;2023-06-22T08:51:50;9.25;;;4.88;;
16326;SDS011;34812;49.846;9.610;2023-06-22T08:56:54;7.72;;;5.18;;
16326;SDS011;34812;49.846;9.610;2023-06-22T09:01:56;4.75;;;4.35;;
16326;SDS011;34812;49.846;9.610;2023-06-22T09:06:59;6.45;;;5.13;;
16326;SDS011;34812;49.846;9.610;2023-06-22T09:12:01;6.03;;;4.68;;
16326;SDS011;34812;49.846;9.610;2023-06-22T09:17:03;13.70;;;6.57;;
16326;SDS011;34812;49.846;9.610;2023-06-22T09:22:07;6.32;;;5.18;;
16326;SDS011;34812;49.846;9.610;2023-06-22T09:27:09;10.18;;;5.55;;
16326;SDS011;34812;49.846;9.610;2023-06-22T09:32:11;5.82;;;4.82;;
16326;SDS011;34812;49.846;9.610;2023-06-22T09:37:15;5.60;;;4.82;;
16326;SDS011;34812;49.846;9.610;2023-06-22T09:42:17;6.43;;;5.47;;
16326;SDS011;34812;49.846;9.610;2023-06-22T09:47:19;6.63;;;4.35;;
16326;SDS011;34812;49.846;9.610;2023-06-22T09:52:22;6.30;;;4.80;;
16326;SDS011;34812;49.846;9.610;2023-06-22T09:57:24;7.20;;;4.80;;
16326;SDS011;34812;49.846;9.610;2023-06-22T10:02:26;5.60;;;4.82;;
16326;SDS011;34812;49.846;9.610;2023-06-22T10:07:31;5.10;;;4.55;;
16326;SDS011;34812;49.846;9.610;2023-06-22T10:12:33;5.10;;;4.60;;
16326;SDS011;34812;49.846;9.610;2023-06-22T10:17:35;8.80;;;4.22;;
16326;SDS011;34812;49.846;9.610;2023-06-22T10:22:39;6.60;;;4.22;;
16326;SDS011;34812;49.846;9.610;2023-06-22T10:27:41;5.97;;;4.97;;
16326;SDS011;34812;49.846;9.610;2023-06-22T10:32:43;5.68;;;3.92;;
16326;SDS011;34812;49.846;9.610;2023-06-22T10:37:47;3.45;;;3.15;;
16326;SDS011;34812;49.846;9.610;2023-06-22T10:42:49;3.42;;;3.08;;
16326;SDS011;34812;49.846;9.610;2023-06-22T10:47:51;5.00;;;3.30;;
16326;SDS011;34812;49.846;9.610;2023-06-22T10:52:54;5.05;;;3.75;;
16326;SDS011;34812;49.846;9.610;2023-06-22T10:57:57;4.13;;;3.72;;
16326;SDS011;34812;49.846;9.610;2023-06-22T11:02:59;6.35;;;3.63;;
16326;SDS011;34812;49.846;9.610;2023-06-22T11:08:02;3.88;;;3.35;;
16326;SDS011;34812;49.846;9.610;2023-06-22T11:13:04;3.25;;;2.95;;
16326;SDS011;34812;49.846;9.610;2023-06-22T11:18:09;4.00;;;2.83;;
16326;SDS011;34812;49.846;9.610;2023-06-22T11:23:13;5.88;;;3.00;;
16326;SDS011;34812;49.846;9.610;2023-06-22T11:28:15;5.00;;;2.85;;
16326;SDS011;34812;49.846;9.610;2023-06-22T11:33:17;3.15;;;2.85;;
16326;SDS011;34812;49.846;9.610;2023-06-22T11:38:20;5.30;;;3.60;;
16326;SDS011;34812;49.846;9.610;2023-06-22T11:43:22;5.15;;;3.30;;
16326;SDS011;34812;49.846;9.610;2023-06-22T11:48:25;3.08;;;2.67;;
16326;SDS011;34812;49.846;9.610;2023-06-22T11:53:28;4.20;;;2.88;;
16326;SDS011;34812;49.846;9.610;2023-06-22T11:58:30;9.95;;;2.83;;
16326;SDS011;34812;49.846;9.610;2023-06-22T12:03:32;5.15;;;3.10;;
16326;SDS011;34812;49.846;9.610;2023-06-22T12:08:36;2.88;;;2.53;;
16326;SDS011;34812;49.846;9.610;2023-06-22T12:13:38;3.28;;;2.35;;
16326;SDS011;34812;49.846;9.610;2023-06-22T12:18:40;7.28;;;2.42;;
16326;SDS011;34812;49.846;9.610;2023-06-22T12:23:43;4.70;;;2.42;;
16326;SDS011;34812;49.846;9.610;2023-06-22T12:28:45;6.70;;;2.83;;
16326;SDS011;34812;49.846;9.610;2023-06-22T12:33:49;4.32;;;2.78;;
16326;SDS011;34812;49.846;9.610;2023-06-22T12:38:52;4.15;;;2.42;;
16326;SDS011;34812;49.846;9.610;2023-06-22T12:43:55;3.45;;;2.47;;
16326;SDS011;34812;49.846;9.610;2023-06-22T12:48:57;7.88;;;2.78;;
16326;SDS011;34812;49.846;9.610;2023-06-22T12:54:02;6.38;;;2.38;;
16326;SDS011;34812;49.846;9.610;2023-06-22T12:59:04;5.88;;;2.47;;
16326;SDS011;34812;49.846;9.610;2023-06-22T13:04:07;4.50;;;2.55;;
16326;SDS011;34812;49.846;9.610;2023-06-22T13:09:13;6.13;;;2.30;;
16326;SDS011;34812;49.846;9.610;2023-06-22T13:14:15;6.10;;;2.97;;
16326;SDS011;34812;49.846;9.610;2023-06-22T13:19:17;4.80;;;2.63;;
16326;SDS011;34812;49.846;9.610;2023-06-22T13:24:21;8.88;;;2.50;;
16326;SDS011;34812;49.846;9.610;2023-06-22T13:29:23;3.97;;;2.50;;
16326;SDS011;34812;49.846;9.610;2023-06-22T13:34:25;6.03;;;2.88;;
16326;SDS011;34812;49.846;9.610;2023-06-22T13:39:28;4.75;;;2.30;;
16326;SDS011;34812;49.846;9.610;2023-06-22T13:44:30;4.05;;;2.28;;
16326;SDS011;34812;49.846;9.610;2023-06-22T13:49:33;5.18;;;2.95;;
16326;SDS011;34812;49.846;9.610;2023-06-22T13:54:36;3.65;;;2.30;;
16326;SDS011;34812;49.846;9.610;2023-06-22T13:59:38;2.60;;;2.40;;
16326;SDS011;34812;49.846;9.610;2023-06-22T14:04:40;6.80;;;2.65;;
16326;SDS011;34812;49.846;9.610;2023-06-22T14:09:44;8.10;;;3.58;;
16326;SDS011;34812;49.846;9.610;2023-06-22T14:14:46;8.07;;;2.70;;
16326;SDS011;34812;49.846;9.610;2023-06-22T14:19:48;8.27;;;2.90;;
16326;SDS011;34812;49.846;9.610;2023-06-22T14:24:53;6.18;;;2.38;;
16326;SDS011;34812;49.846;9.610;2023-06-22T14:29:56;5.68;;;2.50;;
16326;SDS011;34812;49.846;9.610;2023-06-22T14:34:58;5.82;;;2.72;;
16326;SDS011;34812;49.846;9.610;2023-06-22T14:40:01;6.03;;;2.40;;
16326;SDS011;34812;49.846;9.610;2023-06-22T14:45:04;6.13;;;2.70;;
16326;SDS011;34812;49.846;9.610;2023-06-22T14:50:06;5.30;;;2.50;;
16326;SDS011;34812;49.846;9.610;2023-06-22T14:55:10;3.15;;;2.40;;
16326;SDS011;34812;49.846;9.610;2023-06-22T15:00:12;3.60;;;2.45;;
16326;SDS011;34812;49.846;9.610;2023-06-22T15:05:14;3.85;;;2.35;;
16326;SDS011;34812;49.846;9.610;2023-06-22T15:10:18;5.03;;;2.50;;
16326;SDS011;34812;49.846;9.610;2023-06-22T15:15:20;4.93;;;3.08;;
16326;SDS011;34812;49.846;9.610;2023-06-22T15:20:22;6.70;;;3.17;;
16326;SDS011;34812;49.846;9.610;2023-06-22T15:25:25;4.15;;;2.60;;
16326;SDS011;34812;49.846;9.610;2023-06-22T15:30:27;3.95;;;2.47;;
16326;SDS011;34812;49.846;9.610;2023-06-22T15:35:30;5.95;;;2.65;;
16326;SDS011;34812;49.846;9.610;2023-06-22T15:40:34;4.53;;;2.60;;
16326;SDS011;34812;49.846;9.610;2023-06-22T15:45:36;5.32;;;2.55;;
16326;SDS011;34812;49.846;9.610;2023-06-22T15:50:38;4.13;;;2.13;;
16326;SDS011;34812;49.846;9.610;2023-06-22T15:55:41;4.35;;;2.92;;
16326;SDS011;34812;49.846;9.610;2023-06-22T16:00:43;4.05;;;2.38;;
16326;SDS011;34812;49.846;9.610;2023-06-22T16:05:48;7.82;;;2.60;;
16326;SDS011;34812;49.846;9.610;2023-06-22T16:10:52;6.65;;;2.92;;
16326;SDS011;34812;49.846;9.610;2023-06-22T16:15:54;9.88;;;2.35;;
16326;SDS011;34812;49.846;9.610;2023-06-22T16:20:56;6.95;;;2.03;;
16326;SDS011;34812;49.846;9.610;2023-06-22T16:26:00;5.30;;;2.03;;
16326;SDS011;34812;49.846;9.610;2023-06-22T16:31:02;2.50;;;1.55;;
16326;SDS011;34812;49.846;9.610;2023-06-22T16:36:04;4.35;;;1.95;;
16326;SDS011;34812;49.846;9.610;2023-06-22T16:41:07;7.03;;;2.08;;
16326;SDS011;34812;49.846;9.610;2023-06-22T16:46:09;4.72;;;1.90;;
16326;SDS011;34812;49.846;9.610;2023-06-22T16:51:12;3.60;;;2.10;;
16326;SDS011;34812;49.846;9.610;2023-06-22T16:56:16;6.25;;;1.88;;
16326;SDS011;34812;49.846;9.610;2023-06-22T17:01:18;3.95;;;1.80;;
16326;SDS011;34812;49.846;9.610;2023-06-22T17:06:21;6.75;;;2.10;;
16326;SDS011;34812;49.846;9.610;2023-06-22T17:11:25;7.32;;;2.15;;
16326;SDS011;34812;49.846;9.610;2023-06-22T17:16:29;4.97;;;2.47;;
16326;SDS011;34812;49.846;9.610;2023-06-22T17:21:33;5.25;;;2.13;;
16326;SDS011;34812;49.846;9.610;2023-06-22T17:26:36;6.72;;;2.42;;
16326;SDS011;34812;49.846;9.610;2023-06-22T17:31:39;6.35;;;2.35;;
16326;SDS011;34812;49.846;9.610;2023-06-22T17:36:42;2.03;;;1.67;;
16326;SDS011;34812;49.846;9.610;2023-06-22T17:41:46;10.38;;;2.08;;
16326;SDS011;34812;49.846;9.610;2023-06-22T17:46:51;4.45;;;2.50;;
16326;SDS011;34812;49.846;9.610;2023-06-22T17:51:53;2.83;;;1.73;;
16326;SDS011;34812;49.846;9.610;2023-06-22T17:56:56;7.90;;;2.58;;
16326;SDS011;34812;49.846;9.610;2023-06-22T18:02:05;4.22;;;2.00;;
16326;SDS011;34812;49.846;9.610;2023-06-22T18:07:08;3.35;;;2.00;;
16326;SDS011;34812;49.846;9.610;2023-06-22T18:12:12;5.20;;;2.92;;
16326;SDS011;34812;49.846;9.610;2023-06-22T18:17:14;4.55;;;2.20;;
16326;SDS011;34812;49.846;9.610;2023-06-22T18:22:17;3.83;;;2.17;;
16326;SDS011;34812;49.846;9.610;2023-06-22T18:27:20;6.38;;;2.22;;
16326;SDS011;34812;49.846;9.610;2023-06-22T18:32:23;7.75;;;2.47;;
16326;SDS011;34812;49.846;9.610;2023-06-22T18:37:25;5.80;;;2.55;;
16326;SDS011;34812;49.846;9.610;2023-06-22T18:42:32;5.63;;;2.22;;
16326;SDS011;34812;49.846;9.610;2023-06-22T18:47:35;4.43;;;2.40;;
16326;SDS011;34812;49.846;9.610;2023-06-22T18:52:37;6.82;;;2.30;;
16326;SDS011;34812;49.846;9.610;2023-06-22T18:57:40;3.90;;;1.90;;
16326;SDS011;34812;49.846;9.610;2023-06-22T19:02:43;5.85;;;2.15;;
16326;SDS011;34812;49.846;9.610;2023-06-22T19:07:56;7.47;;;2.47;;
16326;SDS011;34812;49.846;9.610;2023-06-22T19:18:18;6.53;;;2.55;;
16326;SDS011;34812;49.846;9.610;2023-06-22T19:23:24;4.53;;;2.38;;
16326;SDS011;34812;49.846;9.610;2023-06-22T19:28:27;9.75;;;2.88;;
16326;SDS011;34812;49.846;9.610;2023-06-22T19:33:30;6.10;;;3.42;;
16326;SDS011;34812;49.846;9.610;2023-06-22T19:38:33;4.15;;;2.33;;
16326;SDS011;34812;49.846;9.610;2023-06-22T19:43:35;6.57;;;2.17;;
16326;SDS011;34812;49.846;9.610;2023-06-22T19:48:40;7.93;;;1.83;;
16326;SDS011;34812;49.846;9.610;2023-06-22T19:53:43;3.70;;;2.00;;
16326;SDS011;34812;49.846;9.610;2023-06-22T19:58:48;4.63;;;1.92;;
16326;SDS011;34812;49.846;9.610;2023-06-22T20:03:55;4.30;;;1.60;;
16326;SDS011;34812;49.846;9.610;2023-06-22T20:08:57;3.83;;;2.00;;
16326;SDS011;34812;49.846;9.610;2023-06-22T20:14:04;2.67;;;1.48;;
16326;SDS011;34812;49.846;9.610;2023-06-22T20:19:08;7.38;;;1.85;;
16326;SDS011;34812;49.846;9.610;2023-06-22T20:24:11;8.10;;;1.90;;
16326;SDS011;34812;49.846;9.610;2023-06-22T20:29:23;2.78;;;1.50;;
16326;SDS011;34812;49.846;9.610;2023-06-22T20:34:27;4.55;;;2.08;;
16326;SDS011;34812;49.846;9.610;2023-06-22T20:39:29;8.23;;;3.15;;
16326;SDS011;34812;49.846;9.610;2023-06-22T20:44:31;5.78;;;2.83;;
16326;SDS011;34812;49.846;9.610;2023-06-22T20:49:34;4.93;;;2.50;;
16326;SDS011;34812;49.846;9.610;2023-06-22T20:54:37;6.47;;;2.50;;
16326;SDS011;34812;49.846;9.610;2023-06-22T20:59:39;14.35;;;2.88;;
16326;SDS011;34812;49.846;9.610;2023-06-22T21:04:42;5.50;;;2.35;;
16326;SDS011;34812;49.846;9.610;2023-06-22T21:09:49;8.35;;;3.00;;
16326;SDS011;34812;49.846;9.610;2023-06-22T21:14:51;4.70;;;2.60;;
16326;SDS011;34812;49.846;9.610;2023-06-22T21:19:54;8.07;;;2.22;;
16326;SDS011;34812;49.846;9.610;2023-06-22T21:25:02;10.15;;;2.80;;
16326;SDS011;34812;49.846;9.610;2023-06-22T21:30:05;5.05;;;2.28;;
16326;SDS011;34812;49.846;9.610;2023-06-22T21:35:09;8.57;;;2.90;;
16326;SDS011;34812;49.846;9.610;2023-06-22T21:40:12;3.92;;;2.65;;
16326;SDS011;34812;49.846;9.610;2023-06-22T21:45:14;10.48;;;3.45;;
16326;SDS011;34812;49.846;9.610;2023-06-22T21:50:17;6.93;;;3.00;;
16326;SDS011;34812;49.846;9.610;2023-06-22T21:55:19;3.72;;;1.95;;
16326;SDS011;34812;49.846;9.610;2023-06-22T22:00:22;2.05;;;1.63;;
16326;SDS011;34812;49.846;9.610;2023-06-22T22:05:25;1.95;;;1.13;;
16326;SDS011;34812;49.846;9.610;2023-06-22T22:10:28;1.77;;;0.98;;
16326;SDS011;34812;49.846;9.610;2023-06-22T22:15:30;0.55;;;0.43;;
16326;SDS011;34812;49.846;9.610;2023-06-22T22:20:34;4.47;;;0.77;;
16326;SDS011;34812;49.846;9.610;2023-06-22T22:25:36;2.97;;;0.38;;
16326;SDS011;34812;49.846;9.610;2023-06-22T22:30:38;0.52;;;0.40;;
16326;SDS011;34812;49.846;9.610;2023-06-22T22:35:42;1.15;;;0.50;;
16326;SDS011;34812;49.846;9.610;2023-06-22T22:40:44;1.90;;;0.60;;
16326;SDS011;34812;49.846;9.610;2023-06-22T22:45:46;0.30;;;0.30;;
16326;SDS011;34812;49.846;9.610;2023-06-22T22:50:50;0.98;;;0.60;;
16326;SDS011;34812;49.846;9.610;2023-06-22T22:55:52;0.38;;;0.38;;
16326;SDS011;34812;49.846;9.610;2023-06-22T23:00:55;0.40;;;0.28;;
16326;SDS011;34812;49.846;9.610;2023-06-22T23:05:58;0.30;;;0.30;;
16326;SDS011;34812;49.846;9.610;2023-06-22T23:11:00;0.40;;;0.40;;
16326;SDS011;34812;49.846;9.610;2023-06-22T23:16:02;1.83;;;0.40;;
16326;SDS011;34812;49.846;9.610;2023-06-22T23:21:06;0.95;;;0.50;;
16326;SDS011;34812;49.846;9.610;2023-06-22T23:26:08;0.20;;;0.20;;
16326;SDS011;34812;49.846;9.610;2023-06-22T23:31:10;0.57;;;0.30;;
16326;SDS011;34812;49.846;9.610;2023-06-22T23:36:14;0.52;;;0.40;;
16326;SDS011;34812;49.846;9.610;2023-06-22T23:41:16;0.77;;;0.30;;
16326;SDS011;34812;49.846;9.610;2023-06-22T23:46:18;0.22;;;0.22;;
16326;SDS011;34812;49.846;9.610;2023-06-22T23:51:22;1.38;;;0.30;;
16326;SDS011;34812;49.846;9.610;2023-06-22T23:56:27;0.30;;;0.30;;
